Breakabeen, New York
Current Conditions -  °F | °C
As of 8:16 AM on Saturday 25 Oct 2014 (Local Time) from KALB Reporting Station
Broken Clouds Broken Clouds  
Wind Chill:   Ceiling: 2100
Heat Index:   Visibility: 10mi
Dew Point:   Wind: 3mph
Humidity: 89%   Direction: 190°S
Pressure: 29.84"   Gusts: NA
Location:  42.5337°N, 74.3385°W
Report Text: KALB 251216Z 19003KT 10SM BKN021 BKN230 07/05 A2984 RMK AO2 T00670050 $
Loading
Personal Weather Stations






























Interactive Weather Map
Tropical Storm Tracking
New forecast layout! Learn more

10-Day Weather Forecast

Advertisements
Track Severe Weather on mobile